Time;durP1;ratioP1;P1;durP2;ratioP2;P2;SDS_P1;SDS_P2;PMS_P1;PMS_P2;Temp;Humidity;BMP_temperature;BMP_pressure;BME280_temperature;BME280_humidity;BME280_pressure;Samples;Min_cycle;Max_cycle;Signal;HPM_P1;HPM_P2
2021/04/25 00:01:23;;;;;;;;;;;8.90;99.90;;;;;;5049882;28;20606;-65
2021/04/25 00:03:50;;;;;;;14.13;7.30;;;8.90;99.90;;;;;;5053859;28;19923;-65
2021/04/25 00:06:17;;;;;;;16.17;7.80;;;8.90;99.90;;;;;;5052055;28;20051;-65
2021/04/25 00:08:43;;;;;;;19.42;8.45;;;8.90;99.90;;;;;;5051138;28;20052;-65
2021/04/25 00:11:10;;;;;;;15.73;8.88;;;8.80;99.90;;;;;;5050434;28;20055;-67
2021/04/25 00:13:37;;;;;;;17.05;8.45;;;8.60;99.90;;;;;;5050233;28;20590;-67
2021/04/25 00:16:05;;;;;;;17.23;8.50;;;8.70;99.90;;;;;;5051180;28;20048;-67
2021/04/25 00:18:34;;;;;;;14.65;7.45;;;8.70;99.90;;;;;;5051147;28;20128;-67
2021/04/25 00:21:01;;;;;;;18.75;8.13;;;8.70;99.90;;;;;;5053198;28;20048;-67
2021/04/25 00:23:27;;;;;;;15.95;7.97;;;8.50;99.90;;;;;;5050701;28;20060;-67
2021/04/25 00:25:54;;;;;;;18.45;8.25;;;8.40;99.90;;;;;;5052128;28;20059;-67
2021/04/25 00:28:20;;;;;;;17.08;8.05;;;8.40;99.90;;;;;;5052754;28;20048;-67
2021/04/25 00:30:48;;;;;;;18.67;8.70;;;8.40;99.90;;;;;;5052131;28;20049;-67
2021/04/25 00:33:14;;;;;;;21.50;8.45;;;8.30;99.90;;;;;;5051532;28;20049;-67
2021/04/25 00:35:41;;;;;;;18.08;8.30;;;8.30;99.90;;;;;;5052402;28;20059;-67
2021/04/25 00:38:07;;;;;;;14.80;7.85;;;8.30;99.90;;;;;;5050805;28;20055;-67
2021/04/25 00:40:34;;;;;;;18.00;8.38;;;8.30;99.90;;;;;;5050840;28;20051;-67
2021/04/25 00:43:01;;;;;;;17.50;8.85;;;8.50;99.90;;;;;;5051534;28;21269;-67
2021/04/25 00:45:28;;;;;;;15.18;8.68;;;8.40;99.90;;;;;;5054582;28;20083;-67
2021/04/25 00:47:55;;;;;;;16.98;8.55;;;8.40;99.90;;;;;;5048981;28;20118;-67
2021/04/25 00:50:24;;;;;;;16.45;7.90;;;8.40;99.90;;;;;;5051444;28;20185;-67
2021/04/25 00:52:54;;;;;;;17.85;8.52;;;8.50;99.90;;;;;;5052644;28;20049;-67
2021/04/25 00:55:23;;;;;;;13.57;7.63;;;8.50;99.90;;;;;;5048961;28;20060;-67
2021/04/25 00:57:52;;;;;;;16.50;8.50;;;8.50;99.90;;;;;;5049707;28;20087;-67
2021/04/25 01:00:19;;;;;;;20.30;8.85;;;8.30;99.90;;;;;;5050256;28;20056;-67
2021/04/25 01:02:45;;;;;;;17.73;8.77;;;8.20;99.90;;;;;;5050566;28;20457;-67
2021/04/25 01:05:15;;;;;;;15.68;8.18;;;8.10;99.90;;;;;;5049983;28;20049;-69
2021/04/25 01:07:42;;;;;;;15.82;8.40;;;8.20;99.90;;;;;;5049611;28;20048;-67
2021/04/25 01:10:09;;;;;;;;;;;8.20;99.90;;;;;;5051001;28;20076;-67
2021/04/25 01:12:37;;;;;;;18.67;9.50;;;8.20;99.90;;;;;;5049073;28;19959;-67
2021/04/25 01:15:05;;;;;;;20.03;8.60;;;8.20;99.90;;;;;;5050164;28;20064;-67
2021/04/25 01:17:32;;;;;;;17.40;8.73;;;8.20;99.90;;;;;;5047342;28;20052;-67
2021/04/25 01:20:00;;;;;;;19.15;8.73;;;8.10;99.90;;;;;;5052196;28;20048;-67
2021/04/25 01:22:27;;;;;;;17.63;8.63;;;8.00;99.90;;;;;;5050337;28;20135;-67
2021/04/25 01:24:54;;;;;;;17.53;8.33;;;7.90;99.90;;;;;;5050369;28;20075;-67
2021/04/25 01:27:20;;;;;;;;;;;7.80;99.90;;;;;;5051618;28;20527;-67
2021/04/25 01:29:47;;;;;;;18.97;8.77;;;7.80;99.90;;;;;;5052524;28;19932;-67
2021/04/25 01:32:14;;;;;;;21.60;9.65;;;7.70;99.90;;;;;;5052054;28;21614;-67
2021/04/25 01:34:40;;;;;;;22.40;9.07;;;7.50;99.90;;;;;;5050890;28;20058;-68
2021/04/25 01:37:07;;;;;;;21.20;9.20;;;7.50;99.90;;;;;;5049799;28;20524;-67
2021/04/25 01:39:34;;;;;;;17.73;8.47;;;7.50;99.90;;;;;;5052921;28;20060;-67
2021/04/25 01:42:01;;;;;;;17.93;9.00;;;7.50;99.90;;;;;;5051444;28;20063;-68
2021/04/25 01:44:27;;;;;;;14.97;8.43;;;7.50;99.90;;;;;;5048798;28;20058;-67
2021/04/25 01:46:54;;;;;;;18.93;8.77;;;7.40;99.90;;;;;;5049557;28;20099;-67
2021/04/25 01:49:20;;;;;;;;;;;7.40;99.90;;;;;;5051734;28;20058;-67
2021/04/25 01:51:47;;;;;;;22.43;8.80;;;7.40;99.90;;;;;;5049147;28;19920;-67
2021/04/25 01:54:14;;;;;;;13.37;7.80;;;7.40;99.90;;;;;;5049017;28;20060;-67
2021/04/25 01:56:41;;;;;;;17.07;8.57;;;7.40;99.90;;;;;;5050679;28;20106;-67
2021/04/25 01:59:08;;;;;;;15.80;9.00;;;7.30;99.90;;;;;;5050503;28;20138;-67
2021/04/25 02:01:35;;;;;;;18.37;8.80;;;7.20;99.90;;;;;;5055739;28;20087;-68
2021/04/25 02:04:01;;;;;;;16.27;8.50;;;7.20;99.90;;;;;;5054605;28;20059;-67
2021/04/25 02:06:28;;;;;;;19.53;8.83;;;7.10;99.90;;;;;;5052261;28;21699;-67
2021/04/25 02:08:54;;;;;;;;;;;7.10;99.90;;;;;;5048915;28;20094;-67
2021/04/25 02:11:21;;;;;;;13.80;7.70;;;7.00;99.90;;;;;;5049456;28;21213;-67
2021/04/25 02:13:48;;;;;;;17.10;8.63;;;7.00;99.90;;;;;;5051644;28;20048;-67
2021/04/25 02:16:15;;;;;;;19.47;8.67;;;7.00;99.90;;;;;;5052147;28;20131;-67
2021/04/25 02:18:41;;;;;;;;;;;7.00;99.90;;;;;;5048126;28;20102;-67
2021/04/25 02:21:08;;;;;;;17.67;8.87;;;6.90;99.90;;;;;;5045987;28;19931;-68
2021/04/25 02:23:34;;;;;;;;;;;6.80;99.90;;;;;;5046421;28;20068;-67
2021/04/25 02:26:01;;;;;;;15.63;9.07;;;6.80;99.90;;;;;;5050888;28;19940;-67
2021/04/25 02:28:27;;;;;;;18.43;9.73;;;6.80;99.90;;;;;;5048101;28;20075;-68
2021/04/25 02:30:54;;;;;;;;;;;6.90;99.90;;;;;;5053039;28;20048;-68
2021/04/25 02:33:21;;;;;;;22.40;8.75;;;6.90;99.90;;;;;;5051811;28;20015;-67
2021/04/25 02:35:48;;;;;;;18.50;9.60;;;6.80;99.90;;;;;;5050838;28;20075;-67
2021/04/25 02:38:15;;;;;;;17.43;9.20;;;6.70;99.90;;;;;;5055841;28;20045;-66
2021/04/25 02:40:42;;;;;;;17.97;9.17;;;6.60;99.90;;;;;;5060913;28;20055;-65
2021/04/25 02:43:08;;;;;;;17.43;9.30;;;6.60;99.90;;;;;;5058871;28;20056;-68
2021/04/25 02:45:35;;;;;;;16.20;8.30;;;6.60;99.90;;;;;;5058745;28;20056;-66
2021/04/25 02:48:06;;;;;;;19.73;9.00;;;6.70;99.90;;;;;;5055711;28;20922;-67
2021/04/25 02:50:36;;;;;;;17.60;8.57;;;6.60;99.90;;;;;;5051287;28;20048;-68
2021/04/25 02:53:02;;;;;;;17.73;8.60;;;6.60;99.90;;;;;;5052674;28;20044;-67
2021/04/25 02:55:29;;;;;;;16.03;8.20;;;6.50;99.90;;;;;;5053138;28;20533;-67
2021/04/25 02:57:55;;;;;;;18.43;8.90;;;6.50;99.90;;;;;;5054825;28;20048;-67
2021/04/25 03:00:24;;;;;;;18.00;9.00;;;6.50;99.90;;;;;;5054055;28;20531;-67
2021/04/25 03:02:51;;;;;;;15.40;8.43;;;6.50;99.90;;;;;;5058028;28;20501;-66
2021/04/25 03:05:18;;;;;;;15.47;8.53;;;6.50;99.90;;;;;;5058853;28;21142;-65
2021/04/25 03:07:45;;;;;;;20.43;8.93;;;6.60;99.90;;;;;;5055880;28;20556;-65
2021/04/25 03:10:14;;;;;;;16.00;8.47;;;6.50;99.90;;;;;;5054138;28;20053;-65
2021/04/25 03:12:41;;;;;;;17.00;8.90;;;6.40;99.90;;;;;;5061842;28;20405;-65
2021/04/25 03:15:09;;;;;;;19.47;8.83;;;6.50;99.90;;;;;;5064971;28;20055;-66
2021/04/25 03:17:36;;;;;;;15.27;8.30;;;6.40;99.90;;;;;;5061951;28;20059;-66
2021/04/25 03:20:04;;;;;;;18.73;9.13;;;6.40;99.90;;;;;;5062947;28;20047;-68
2021/04/25 03:22:31;;;;;;;18.73;8.90;;;6.30;99.90;;;;;;5059673;28;20048;-68
2021/04/25 03:24:58;;;;;;;19.87;8.17;;;6.30;99.90;;;;;;5057719;28;20066;-68
2021/04/25 03:27:25;;;;;;;17.03;9.47;;;6.20;99.90;;;;;;5059358;28;20047;-67
2021/04/25 03:29:51;;;;;;;18.93;8.60;;;6.20;99.90;;;;;;5064772;28;20056;-66
2021/04/25 03:32:18;;;;;;;16.07;8.50;;;6.20;99.90;;;;;;5062227;28;20041;-69
2021/04/25 03:34:44;;;;;;;17.50;9.13;;;6.10;99.90;;;;;;5063388;28;20553;-67
2021/04/25 03:37:11;;;;;;;19.20;10.03;;;6.10;99.90;;;;;;5063303;28;20048;-67
2021/04/25 03:39:39;;;;;;;19.90;8.90;;;6.10;99.90;;;;;;5062059;28;20200;-67
2021/04/25 03:42:06;;;;;;;19.13;9.10;;;6.00;99.90;;;;;;5061950;28;20063;-66
2021/04/25 03:44:33;;;;;;;20.57;8.70;;;6.00;99.90;;;;;;5065113;28;20060;-67
2021/04/25 03:47:00;;;;;;;19.03;9.23;;;6.00;99.90;;;;;;5063887;28;20071;-66
2021/04/25 03:49:26;;;;;;;20.37;9.27;;;6.00;99.90;;;;;;5064043;28;20178;-65
2021/04/25 03:51:55;;;;;;;19.10;8.73;;;5.90;99.90;;;;;;5063079;28;20097;-67
2021/04/25 03:54:21;;;;;;;19.93;9.33;;;5.90;99.90;;;;;;5059745;28;20060;-69
2021/04/25 03:56:49;;;;;;;19.80;9.63;;;5.80;99.90;;;;;;5056296;28;20075;-66
2021/04/25 03:59:16;;;;;;;21.73;9.70;;;5.80;99.90;;;;;;5065474;28;20044;-66
2021/04/25 04:01:42;;;;;;;21.10;9.30;;;5.80;99.90;;;;;;5062522;28;20059;-67
2021/04/25 04:04:08;;;;;;;;;;;5.80;99.90;;;;;;5061333;28;20512;-67
2021/04/25 04:06:35;;;;;;;19.00;8.73;;;5.70;99.90;;;;;;5061636;28;19924;-68
2021/04/25 04:09:02;;;;;;;19.43;9.60;;;5.70;99.90;;;;;;5059205;28;20052;-67
2021/04/25 04:11:28;;;;;;;20.80;10.13;;;5.70;99.90;;;;;;5058777;28;20056;-68
2021/04/25 04:13:56;;;;;;;19.97;9.20;;;5.70;99.90;;;;;;5056662;28;20071;-68
2021/04/25 04:16:24;;;;;;;18.60;9.90;;;5.70;99.90;;;;;;5062647;28;20064;-65
2021/04/25 04:18:50;;;;;;;16.50;9.07;;;5.80;99.90;;;;;;5064813;28;20500;-66
2021/04/25 04:21:17;;;;;;;21.70;9.03;;;5.70;99.90;;;;;;5060900;28;20052;-66
2021/04/25 04:23:44;;;;;;;21.03;9.60;;;5.70;99.90;;;;;;5062953;28;20056;-66
2021/04/25 04:26:11;;;;;;;19.57;8.07;;;5.70;99.90;;;;;;5064687;28;20044;-68
2021/04/25 04:28:38;;;;;;;15.50;8.17;;;5.60;99.90;;;;;;5056196;28;20141;-68
2021/04/25 04:31:06;;;;;;;20.67;8.93;;;5.60;99.90;;;;;;5056124;28;20055;-67
2021/04/25 04:33:32;;;;;;;19.23;8.33;;;5.60;99.90;;;;;;5056526;28;20066;-67
2021/04/25 04:35:59;;;;;;;17.00;8.97;;;5.60;99.90;;;;;;5058542;28;20542;-68
2021/04/25 04:38:25;;;;;;;18.07;8.70;;;5.70;99.90;;;;;;5056998;28;20056;-67
2021/04/25 04:40:52;;;;;;;16.90;8.63;;;5.60;99.90;;;;;;5057742;28;20052;-69
2021/04/25 04:43:18;;;;;;;21.17;9.17;;;5.60;99.90;;;;;;5056843;28;20567;-67
2021/04/25 04:45:45;;;;;;;16.47;9.07;;;5.50;99.90;;;;;;5059501;28;20055;-68
2021/04/25 04:48:12;;;;;;;;;;;5.60;99.90;;;;;;5060170;28;20040;-68
2021/04/25 04:50:38;;;;;;;17.90;9.70;;;5.50;99.90;;;;;;5057034;28;21297;-68
2021/04/25 04:53:05;;;;;;;19.47;8.63;;;5.50;99.90;;;;;;5056553;28;20064;-68
2021/04/25 04:55:31;;;;;;;19.80;9.87;;;5.40;99.90;;;;;;5059043;28;20099;-68
2021/04/25 04:57:58;;;;;;;19.63;9.87;;;5.50;99.90;;;;;;5058787;28;20217;-68
2021/04/25 05:00:25;;;;;;;19.30;9.20;;;5.50;99.90;;;;;;5059016;28;20067;-67
2021/04/25 05:02:51;;;;;;;20.97;10.23;;;5.50;99.90;;;;;;5060347;28;20060;-68
2021/04/25 05:05:19;;;;;;;22.30;9.43;;;5.60;99.90;;;;;;5059654;28;20048;-67
2021/04/25 05:07:45;;;;;;;21.07;10.20;;;5.60;99.90;;;;;;5058881;28;20079;-69
2021/04/25 05:10:12;;;;;;;18.07;8.90;;;5.60;99.90;;;;;;5059616;28;20080;-67
2021/04/25 05:12:39;;;;;;;19.83;8.80;;;5.70;99.90;;;;;;5056316;28;20052;-68
2021/04/25 05:15:07;;;;;;;21.70;9.20;;;5.80;99.90;;;;;;5059617;28;20497;-67
2021/04/25 05:17:34;;;;;;;17.77;8.33;;;5.70;99.90;;;;;;5062321;28;20059;-73
2021/04/25 05:20:00;;;;;;;16.40;8.50;;;5.70;99.90;;;;;;5058706;28;20543;-68
2021/04/25 05:22:27;;;;;;;14.93;7.70;;;6.00;99.90;;;;;;5058128;28;20052;-69
2021/04/25 05:24:54;;;;;;;19.13;9.13;;;5.90;99.90;;;;;;5057683;28;20173;-67
2021/04/25 05:27:20;;;;;;;21.20;7.60;;;5.80;99.90;;;;;;5056268;28;20121;-68
2021/04/25 05:29:47;;;;;;;20.20;9.03;;;5.90;99.90;;;;;;5054984;28;20049;-67
2021/04/25 05:32:14;;;;;;;15.17;8.23;;;5.70;99.90;;;;;;5061927;28;20053;-66
2021/04/25 05:34:41;;;;;;;17.57;7.70;;;5.70;99.90;;;;;;5063887;28;20058;-66
2021/04/25 05:37:07;;;;;;;16.53;8.67;;;5.80;99.90;;;;;;5062770;28;20045;-67
2021/04/25 05:39:35;;;;;;;17.90;8.37;;;5.80;99.90;;;;;;5064578;28;20146;-67
2021/04/25 05:42:01;;;;;;;17.57;8.20;;;5.80;99.90;;;;;;5060376;28;20425;-66
2021/04/25 05:44:28;;;;;;;15.23;7.40;;;5.70;99.90;;;;;;5062246;28;20060;-66
2021/04/25 05:46:55;;;;;;;18.73;7.73;;;5.80;99.90;;;;;;5061899;28;20052;-66
2021/04/25 05:49:22;;;;;;;16.60;7.20;;;5.90;99.90;;;;;;5062755;28;20139;-67
2021/04/25 05:51:48;;;;;;;16.27;7.10;;;6.00;99.90;;;;;;5057968;28;20053;-67
2021/04/25 05:54:15;;;;;;;17.03;7.93;;;6.00;99.90;;;;;;5056122;28;20053;-68
2021/04/25 05:56:42;;;;;;;17.07;7.27;;;6.10;99.90;;;;;;5060189;28;20136;-67
2021/04/25 05:59:09;;;;;;;16.87;7.17;;;6.20;99.90;;;;;;5054621;28;20059;-68
2021/04/25 06:01:36;;;;;;;15.50;7.63;;;6.20;99.90;;;;;;5055100;28;20437;-68
2021/04/25 06:04:04;;;;;;;16.50;7.23;;;6.40;99.90;;;;;;5057501;28;20052;-68
2021/04/25 06:06:31;;;;;;;14.47;6.97;;;6.30;99.90;;;;;;5059496;28;20056;-68
2021/04/25 06:09:01;;;;;;;19.23;7.90;;;6.40;99.90;;;;;;5056180;28;20055;-66
2021/04/25 06:11:27;;;;;;;17.83;7.43;;;6.50;99.90;;;;;;5057705;28;20442;-67
2021/04/25 06:13:55;;;;;;;16.10;7.40;;;6.40;99.90;;;;;;5058298;28;20052;-67
2021/04/25 06:16:21;;;;;;;13.87;7.43;;;6.40;99.90;;;;;;5057812;28;20052;-67
2021/04/25 06:18:48;;;;;;;13.17;6.77;;;6.50;99.90;;;;;;5058998;28;20095;-64
2021/04/25 06:21:15;;;;;;;18.17;7.10;;;6.40;99.90;;;;;;5059888;28;20114;-65
2021/04/25 06:23:41;;;;;;;14.80;6.90;;;6.50;99.90;;;;;;5065612;28;20052;-65
2021/04/25 06:26:08;;;;;;;18.07;7.80;;;6.60;99.90;;;;;;5063950;28;20063;-67
2021/04/25 06:28:34;;;;;;;16.37;7.23;;;6.70;99.90;;;;;;5062844;28;20052;-68
2021/04/25 06:31:02;;;;;;;17.37;6.77;;;6.70;99.90;;;;;;5062559;28;20048;-65
2021/04/25 06:33:28;;;;;;;15.93;7.77;;;6.70;99.90;;;;;;5064815;28;20056;-66
2021/04/25 06:35:55;;;;;;;;;;;6.90;99.90;;;;;;5067088;28;20048;-66
2021/04/25 06:38:21;;;;;;;17.00;6.83;;;7.00;99.90;;;;;;5060999;28;19950;-65
2021/04/25 06:40:49;;;;;;;13.73;6.37;;;7.00;99.90;;;;;;5061944;28;20074;-65
2021/04/25 06:43:16;;;;;;;15.67;7.97;;;7.30;99.90;;;;;;5062197;28;20060;-67
2021/04/25 06:45:43;;;;;;;15.57;6.47;;;7.30;99.90;;;;;;5062677;28;20052;-68
2021/04/25 06:48:10;;;;;;;14.43;6.03;;;7.50;99.90;;;;;;5059940;28;20078;-68
2021/04/25 06:50:37;;;;;;;14.23;6.33;;;7.50;99.90;;;;;;5060390;28;20406;-67
2021/04/25 06:53:04;;;;;;;14.90;6.57;;;7.60;99.90;;;;;;5064887;28;20048;-71
2021/04/25 06:55:30;;;;;;;18.20;6.93;;;7.80;99.90;;;;;;5062510;28;20048;-67
2021/04/25 06:57:57;;;;;;;13.77;6.90;;;7.90;99.90;;;;;;5060640;28;20048;-66
2021/04/25 07:00:26;;;;;;;13.93;5.63;;;8.10;99.90;;;;;;5060717;28;20059;-65
2021/04/25 07:02:53;;;;;;;17.60;6.43;;;8.30;99.90;;;;;;5058231;28;20117;-65
2021/04/25 07:05:23;;;;;;;16.35;6.65;;;8.40;99.90;;;;;;5051569;28;20126;-67
2021/04/25 07:07:50;;;;;;;15.53;5.90;;;8.50;99.90;;;;;;5052489;28;20056;-67
2021/04/25 07:10:18;;;;;;;13.85;5.82;;;8.60;99.90;;;;;;5054768;28;20117;-67
2021/04/25 07:12:45;;;;;;;13.35;5.90;;;8.70;99.90;;;;;;5054467;28;20138;-67
2021/04/25 07:15:12;;;;;;;11.73;5.93;;;8.90;99.90;;;;;;5054217;28;20979;-67
2021/04/25 07:17:39;;;;;;;14.60;5.80;;;9.10;99.90;;;;;;5054797;28;20074;-69
2021/04/25 07:20:10;;;;;;;14.02;5.88;;;9.10;99.90;;;;;;5058422;28;20479;-67
2021/04/25 07:22:46;;;;;;;13.77;5.47;;;9.20;99.90;;;;;;5053457;28;20533;-67
2021/04/25 07:25:13;;;;;;;11.32;5.78;;;9.20;99.90;;;;;;5058540;28;20085;-67
2021/04/25 07:27:44;;;;;;;11.52;4.78;;;9.30;99.90;;;;;;5052098;28;20076;-67
2021/04/25 07:30:16;;;;;;;12.10;5.32;;;9.40;99.90;;;;;;5059646;28;20052;-68
2021/04/25 07:32:45;;;;;;;15.73;5.25;;;9.50;99.90;;;;;;5055199;28;20044;-68
2021/04/25 07:35:16;;;;;;;14.43;4.97;;;9.70;99.90;;;;;;5053983;28;20048;-68
2021/04/25 07:37:47;;;;;;;10.55;5.05;;;9.80;99.90;;;;;;5053097;28;20528;-67
2021/04/25 07:40:17;;;;;;;9.82;4.55;;;10.00;99.90;;;;;;5051416;28;20455;-67
2021/04/25 07:42:47;;;;;;;10.35;4.53;;;9.90;99.90;;;;;;5053046;28;20051;-68
2021/04/25 07:45:15;;;;;;;10.95;4.97;;;10.00;99.90;;;;;;5051676;28;20538;-67
2021/04/25 07:47:46;;;;;;;9.95;4.70;;;10.20;99.90;;;;;;5052122;28;20501;-67
2021/04/25 07:50:15;;;;;;;12.70;5.28;;;10.20;99.90;;;;;;5051251;28;20084;-67
2021/04/25 07:52:43;;;;;;;11.25;4.80;;;10.40;99.90;;;;;;5051604;28;20105;-67
2021/04/25 07:55:11;;;;;;;13.40;5.30;;;10.50;99.90;;;;;;5054224;28;20051;-67
2021/04/25 07:57:38;;;;;;;11.27;4.57;;;10.60;99.90;;;;;;5053767;28;20059;-68
2021/04/25 08:00:07;;;;;;;12.27;5.00;;;10.60;99.90;;;;;;5052171;28;20094;-68
2021/04/25 08:02:35;;;;;;;13.32;4.15;;;10.90;99.90;;;;;;5051317;28;20205;-68
2021/04/25 08:05:01;;;;;;;11.60;4.47;;;11.20;99.90;;;;;;5052985;28;20535;-68
2021/04/25 08:07:28;;;;;;;14.50;4.22;;;11.30;99.90;;;;;;5052300;28;20055;-68
2021/04/25 08:09:54;;;;;;;14.93;5.07;;;11.30;99.90;;;;;;5051305;28;20140;-68
2021/04/25 08:12:22;;;;;;;8.95;4.13;;;11.50;99.90;;;;;;5051262;28;20048;-68
2021/04/25 08:14:48;;;;;;;12.13;4.57;;;11.50;99.90;;;;;;5051650;28;20052;-68
2021/04/25 08:17:15;;;;;;;13.02;4.82;;;12.00;99.90;;;;;;5050008;28;20071;-68
2021/04/25 08:19:41;;;;;;;10.57;4.00;;;12.00;99.90;;;;;;5051842;28;20084;-67
2021/04/25 08:22:08;;;;;;;;;;;12.10;99.90;;;;;;5053979;28;20560;-68
2021/04/25 08:24:35;;;;;;;9.87;3.70;;;12.50;99.90;;;;;;5053293;28;19924;-66
2021/04/25 08:27:01;;;;;;;10.20;4.13;;;13.10;99.90;;;;;;5052418;28;20791;-66
2021/04/25 08:29:29;;;;;;;11.23;4.25;;;13.70;98.40;;;;;;5052506;28;20142;-65
2021/04/25 08:31:55;;;;;;;12.60;3.83;;;14.00;96.40;;;;;;5044663;28;20043;-66
2021/04/25 08:34:22;;;;;;;10.25;3.90;;;14.20;95.50;;;;;;5045529;28;20051;-67
2021/04/25 08:36:48;;;;;;;13.27;4.07;;;14.70;93.60;;;;;;5048437;28;20060;-67
2021/04/25 08:39:15;;;;;;;;;;;15.60;91.70;;;;;;5054524;28;20094;-67
2021/04/25 08:41:41;;;;;;;8.60;3.58;;;16.30;86.70;;;;;;5058465;28;19924;-68
2021/04/25 08:44:09;;;;;;;8.93;4.18;;;16.80;80.00;;;;;;5059977;28;20048;-67
2021/04/25 08:46:37;;;;;;;8.35;3.67;;;17.30;77.70;;;;;;5058678;28;20135;-67
2021/04/25 08:49:03;;;;;;;8.38;3.78;;;17.70;72.10;;;;;;5058282;28;20051;-67
2021/04/25 08:51:30;;;;;;;13.27;3.63;;;18.10;68.70;;;;;;5058276;28;20385;-67
2021/04/25 08:53:57;;;;;;;8.40;3.35;;;17.20;67.40;;;;;;5059448;28;20142;-67
2021/04/25 08:56:23;;;;;;;9.05;4.15;;;17.20;67.40;;;;;;5056509;28;20060;-67
2021/04/25 08:58:52;;;;;;;11.90;4.18;;;17.60;66.80;;;;;;5055974;28;20044;-67
2021/04/25 09:01:19;;;;;;;10.27;4.00;;;18.60;64.90;;;;;;5055528;28;20075;-67
2021/04/25 09:03:46;;;;;;;9.73;3.90;;;18.60;61.30;;;;;;5055416;28;20452;-68
2021/04/25 09:06:13;;;;;;;12.70;4.97;;;18.90;59.40;;;;;;5058000;28;20090;-68
2021/04/25 09:08:45;;;;;;;7.45;3.35;;;19.60;58.40;;;;;;5054694;28;20055;-67
2021/04/25 09:11:27;;;;;;;10.75;3.15;;;20.20;57.10;;;;;;5056203;28;20106;-67
2021/04/25 09:14:13;;;;;;;9.95;3.92;;;20.70;55.00;;;;;;5049674;28;20052;-68
2021/04/25 09:16:40;;;;;;;9.93;3.95;;;20.50;54.90;;;;;;5055946;28;20131;-68
2021/04/25 09:19:07;;;;;;;9.43;3.65;;;21.30;54.10;;;;;;5055700;28;20044;-68
2021/04/25 09:21:34;;;;;;;12.18;3.45;;;21.60;52.40;;;;;;5058937;28;20048;-68
2021/04/25 09:24:20;;;;;;;10.57;3.83;;;22.30;51.60;;;;;;5055928;28;20060;-68
2021/04/25 09:26:46;;;;;;;6.05;3.10;;;22.30;49.40;;;;;;5056408;28;20147;-68
2021/04/25 09:29:13;;;;;;;8.60;3.67;;;22.40;49.60;;;;;;5055730;28;20124;-67
2021/04/25 09:31:40;;;;;;;9.82;4.50;;;22.70;49.00;;;;;;5057975;28;20795;-68
2021/04/25 09:34:08;;;;;;;9.45;3.65;;;22.20;48.60;;;;;;5055492;28;20853;-68
2021/04/25 09:36:38;;;;;;;11.27;3.88;;;22.50;48.10;;;;;;5054498;28;20117;-68
2021/04/25 09:39:13;;;;;;;12.13;3.50;;;22.90;46.90;;;;;;5052081;28;20673;-68
2021/04/25 09:41:41;;;;;;;10.68;3.50;;;23.20;46.40;;;;;;5056754;28;20501;-68
2021/04/25 09:44:08;;;;;;;7.47;3.53;;;23.60;45.40;;;;;;5058920;28;20086;-68
2021/04/25 09:46:51;;;;;;;9.43;3.75;;;23.90;45.80;;;;;;5056247;28;20040;-68
2021/04/25 09:49:44;;;;;;;7.78;3.95;;;23.70;45.70;;;;;;5054064;28;20139;-68
2021/04/25 09:52:12;;;;;;;8.98;3.97;;;24.30;44.40;;;;;;5054970;28;20098;-68
2021/04/25 09:54:39;;;;;;;10.68;4.22;;;24.00;44.80;;;;;;5054557;28;20088;-68
2021/04/25 09:57:06;;;;;;;8.48;3.58;;;24.60;43.90;;;;;;5055118;28;20148;-69
2021/04/25 09:59:49;;;;;;;11.80;4.28;;;24.90;42.30;;;;;;5055758;28;20125;-70
2021/04/25 10:02:16;;;;;;;11.82;3.88;;;24.70;43.00;;;;;;5059561;28;20580;-67
2021/04/25 10:04:43;;;;;;;6.13;3.00;;;24.70;42.10;;;;;;5054600;28;20167;-67
2021/04/25 10:07:10;;;;;;;11.65;3.50;;;24.80;42.20;;;;;;5055436;28;20083;-67
2021/04/25 10:09:37;;;;;;;8.73;3.53;;;25.00;42.10;;;;;;5054704;28;20210;-67
2021/04/25 10:12:05;;;;;;;7.95;3.67;;;25.60;42.30;;;;;;5055891;28;20083;-68
2021/04/25 10:14:32;;;;;;;7.22;3.92;;;26.20;41.60;;;;;;5054549;28;20206;-67
2021/04/25 10:17:01;;;;;;;8.82;3.70;;;26.50;41.20;;;;;;5055046;28;20049;-68
2021/04/25 10:19:28;;;;;;;6.75;3.55;;;27.10;40.00;;;;;;5058408;28;20051;-68
2021/04/25 10:21:56;;;;;;;7.32;3.58;;;26.50;40.20;;;;;;5059148;28;20048;-68
2021/04/25 10:24:22;;;;;;;8.95;3.40;;;27.00;39.40;;;;;;5061476;28;20036;-68
2021/04/25 10:27:06;;;;;;;8.60;3.92;;;27.40;38.90;;;;;;5063174;28;20432;-70
2021/04/25 10:29:38;;;;;;;8.68;4.22;;;27.60;38.70;;;;;;5061810;28;20056;-68
2021/04/25 10:32:07;;;;;;;7.65;3.63;;;27.80;38.50;;;;;;5060903;28;20162;-68
2021/04/25 10:34:34;;;;;;;7.95;3.65;;;26.50;38.80;;;;;;5058636;28;20477;-70
2021/04/25 10:37:03;;;;;;;7.75;3.80;;;25.80;41.10;;;;;;5059506;28;20052;-68
2021/04/25 10:39:34;;;;;;;8.90;4.03;;;26.10;39.10;;;;;;5046510;28;20508;-71
2021/04/25 10:42:26;;;;;;;10.55;4.25;;;25.80;39.80;;;;;;5052371;28;20501;-73
2021/04/25 10:45:28;;;;;;;6.82;3.50;;;25.80;40.10;;;;;;5051355;28;20052;-71
2021/04/25 10:48:37;;;;;;;8.52;3.75;;;26.50;39.60;;;;;;5052089;28;20063;-70
2021/04/25 10:51:11;;;;;;;8.30;3.45;;;26.20;39.80;;;;;;5052281;28;20113;-70
2021/04/25 10:53:41;;;;;;;7.68;3.20;;;25.80;40.20;;;;;;5051473;28;20052;-68
2021/04/25 10:56:39;;;;;;;11.60;4.55;;;26.40;39.30;;;;;;5053615;28;20098;-68
2021/04/25 10:59:23;;;;;;;9.63;3.60;;;26.90;38.60;;;;;;5052801;28;20088;-70
2021/04/25 11:01:50;;;;;;;6.95;3.60;;;26.90;38.90;;;;;;5046844;28;20572;-70
2021/04/25 11:04:54;;;;;;;11.05;4.00;;;26.80;39.20;;;;;;5056381;28;20048;-71
2021/04/25 11:07:43;;;;;;;8.98;4.20;;;26.60;40.10;;;;;;5058753;28;20463;-71
2021/04/25 11:10:12;;;;;;;8.35;3.92;;;26.80;38.90;;;;;;5060242;28;20623;-69
2021/04/25 11:12:45;;;;;;;10.63;3.33;;;26.90;39.40;;;;;;5057146;28;20058;-70
2021/04/25 11:15:31;;;;;;;8.48;3.80;;;27.20;38.80;;;;;;5050564;28;20530;-70
2021/04/25 11:17:58;;;;;;;7.28;3.35;;;27.50;38.70;;;;;;5051371;28;20587;-69
2021/04/25 11:20:32;;;;;;;9.73;4.32;;;27.70;38.00;;;;;;5052300;28;20053;-68
2021/04/25 11:22:59;;;;;;;14.25;3.50;;;26.90;37.80;;;;;;5043460;28;20051;-70
2021/04/25 11:25:34;;;;;;;8.95;3.55;;;27.50;38.80;;;;;;5043331;28;20892;-70
2021/04/25 11:28:01;;;;;;;13.80;3.63;;;27.50;37.60;;;;;;5041876;28;20048;-70
2021/04/25 11:30:35;;;;;;;16.38;4.68;;;27.70;37.50;;;;;;5045991;28;20430;-70
2021/04/25 11:33:33;;;;;;;8.10;3.95;;;27.70;38.30;;;;;;5043261;28;20072;-70
2021/04/25 11:36:37;;;;;;;6.22;3.13;;;26.10;38.60;;;;;;4981781;28;20611;-70
2021/04/25 11:39:06;;;;;;;7.90;3.05;;;24.70;38.90;;;;;;5041750;28;20100;-70
2021/04/25 11:41:34;;;;;;;8.20;3.22;;;26.20;39.70;;;;;;5042042;28;20106;-70
2021/04/25 11:44:00;;;;;;;6.85;3.03;;;26.50;37.40;;;;;;5045463;28;20086;-70
2021/04/25 11:46:31;;;;;;;10.68;3.78;;;25.80;38.60;;;;;;5044163;28;20060;-70
2021/04/25 11:48:58;;;;;;;9.93;3.05;;;26.10;39.00;;;;;;5041357;28;20484;-70
2021/04/25 11:51:25;;;;;;;7.50;3.20;;;27.20;38.50;;;;;;5046138;28;20159;-70
2021/04/25 11:53:51;;;;;;;6.95;2.70;;;27.10;37.90;;;;;;5044524;28;20764;-70
2021/04/25 11:56:26;;;;;;;6.20;2.58;;;26.70;38.40;;;;;;5046864;28;20052;-76
2021/04/25 11:59:08;;;;;;;7.00;2.85;;;27.00;38.30;;;;;;5045651;28;20822;-77
2021/04/25 12:01:34;;;;;;;7.88;2.95;;;26.10;38.50;;;;;;5046686;28;20132;-69
2021/04/25 12:04:01;;;;;;;7.95;2.90;;;24.90;39.00;;;;;;5043440;28;20063;-68
2021/04/25 12:06:45;;;;;;;5.88;2.88;;;25.70;37.90;;;;;;5045629;28;20052;-71
2021/04/25 12:09:12;;;;;;;7.95;2.65;;;26.40;37.90;;;;;;5046985;28;20052;-70
2021/04/25 12:11:38;;;;;;;7.78;2.50;;;25.20;37.80;;;;;;5044913;28;20122;-67
2021/04/25 12:14:17;;;;;;;8.60;2.90;;;26.40;38.70;;;;;;5042714;28;20089;-70
2021/04/25 12:16:44;;;;;;;11.10;3.28;;;26.70;38.60;;;;;;5043339;28;20055;-70
2021/04/25 12:19:21;;;;;;;6.28;2.85;;;25.80;37.70;;;;;;5046736;28;20470;-70
2021/04/25 12:21:48;;;;;;;7.82;2.97;;;25.90;38.80;;;;;;5038562;28;20699;-70
2021/04/25 12:24:27;;;;;;;9.75;3.22;;;26.40;38.60;;;;;;5032946;28;20549;-70
2021/04/25 12:26:54;;;;;;;9.40;2.55;;;26.10;37.80;;;;;;5035065;28;20044;-70
2021/04/25 12:29:34;;;;;;;7.90;3.08;;;26.80;38.40;;;;;;5037267;28;20092;-70
2021/04/25 12:32:01;;;;;;;9.35;2.50;;;27.20;37.70;;;;;;5045755;28;20488;-72
2021/04/25 12:34:29;;;;;;;9.52;2.70;;;27.40;37.50;;;;;;5046910;28;20095;-69
2021/04/25 12:36:58;;;;;;;7.53;2.53;;;27.20;37.00;;;;;;5046212;28;20056;-69
2021/04/25 12:39:24;;;;;;;9.65;2.67;;;26.80;36.30;;;;;;5049142;28;20408;-70
2021/04/25 12:41:52;;;;;;;9.32;2.63;;;27.20;37.10;;;;;;5048330;28;20040;-70
2021/04/25 12:44:20;;;;;;;6.05;2.30;;;27.40;36.00;;;;;;5048799;28;20056;-72
2021/04/25 12:46:55;;;;;;;10.57;2.83;;;26.70;36.30;;;;;;5046249;28;20064;-69
2021/04/25 12:49:32;;;;;;;6.93;2.83;;;26.80;35.80;;;;;;5046413;28;20528;-69
2021/04/25 12:51:59;;;;;;;8.95;2.50;;;25.90;36.60;;;;;;5050356;28;20145;-69
2021/04/25 12:54:27;;;;;;;13.25;2.72;;;26.50;37.30;;;;;;5052251;28;20102;-70
2021/04/25 12:56:55;;;;;;;7.07;2.60;;;26.50;36.30;;;;;;5054656;28;20056;-71